Time;durP1;ratioP1;P1;durP2;ratioP2;P2;SDS_P1;SDS_P2;PMS_P1;PMS_P2;Temp;Humidity;BMP_temperature;BMP_pressure;BME280_temperature;BME280_humidity;BME280_pressure;Samples;Min_cycle;Max_cycle;Signal;HPM_P1;HPM_P2
2023/07/13 00:01:27;;;;;;;5.82;3.22;;;18.20;99.90;;;;;;4990960;28;20188;-81
2023/07/13 00:03:53;;;;;;;5.40;3.58;;;18.20;99.90;;;;;;4988975;28;20030;-81
2023/07/13 00:06:20;;;;;;;4.82;3.42;;;18.20;99.90;;;;;;4989295;28;20027;-82
2023/07/13 00:08:47;;;;;;;5.18;3.55;;;18.20;99.90;;;;;;4989996;28;20022;-81
2023/07/13 00:11:13;;;;;;;10.20;3.88;;;18.20;99.90;;;;;;4990501;28;20044;-81
2023/07/13 00:13:39;;;;;;;7.95;3.85;;;18.10;99.90;;;;;;4989109;28;20021;-81
2023/07/13 00:16:05;;;;;;;6.45;3.65;;;18.20;99.90;;;;;;4988515;28;20458;-81
2023/07/13 00:18:30;;;;;;;5.47;3.95;;;18.10;99.90;;;;;;4991940;28;20048;-81
2023/07/13 00:21:04;;;;;;;7.47;3.42;;;18.10;99.90;;;;;;4994225;28;20131;-82
2023/07/13 00:23:33;;;;;;;6.38;3.50;;;18.10;99.90;;;;;;4993349;28;20109;-82
2023/07/13 00:25:59;;;;;;;7.53;3.70;;;18.10;99.90;;;;;;4991153;28;20156;-81
2023/07/13 00:28:25;;;;;;;13.50;5.15;;;18.10;99.90;;;;;;4994314;28;20077;-81
2023/07/13 00:30:50;;;;;;;6.88;4.25;;;18.10;99.90;;;;;;4992645;28;20723;-81
2023/07/13 00:33:16;;;;;;;7.28;3.72;;;18.10;99.90;;;;;;4992189;28;20467;-81
2023/07/13 00:35:43;;;;;;;7.70;3.95;;;18.10;99.90;;;;;;4991882;28;20030;-82
2023/07/13 00:38:10;;;;;;;7.65;4.30;;;18.10;99.90;;;;;;4992568;28;20034;-81
2023/07/13 00:40:36;;;;;;;20.40;4.85;;;18.10;99.90;;;;;;4992560;28;20030;-81
2023/07/13 00:43:02;;;;;;;7.97;4.28;;;18.10;99.90;;;;;;4991597;28;20884;-82
2023/07/13 00:45:27;;;;;;;8.38;3.83;;;18.10;99.90;;;;;;4991666;28;20136;-81
2023/07/13 00:47:55;;;;;;;5.97;3.70;;;18.10;99.90;;;;;;4990813;28;20034;-80
2023/07/13 00:50:22;;;;;;;7.22;3.65;;;18.10;99.90;;;;;;4992673;28;20167;-81
2023/07/13 00:52:53;;;;;;;7.45;3.40;;;18.10;99.90;;;;;;4990806;28;20035;-81
2023/07/13 00:55:20;;;;;;;9.95;3.95;;;18.10;99.90;;;;;;4992481;28;20144;-81
2023/07/13 00:57:46;;;;;;;6.22;3.80;;;18.10;99.90;;;;;;4991189;28;20038;-81
2023/07/13 01:00:12;;;;;;;5.43;3.67;;;18.10;99.90;;;;;;4991821;28;20053;-81
2023/07/13 01:02:40;;;;;;;7.55;3.67;;;18.10;99.90;;;;;;4990184;28;20057;-81
2023/07/13 01:05:17;;;;;;;5.35;3.50;;;18.10;99.90;;;;;;4990736;28;20022;-81
2023/07/13 01:07:44;;;;;;;7.97;3.50;;;18.10;99.90;;;;;;4989464;28;20038;-81
2023/07/13 01:10:13;;;;;;;7.03;3.80;;;18.10;99.90;;;;;;4988980;28;20023;-81
2023/07/13 01:12:40;;;;;;;9.98;3.60;;;18.00;99.90;;;;;;4989267;28;20153;-82
2023/07/13 01:15:26;;;;;;;8.65;3.33;;;18.10;99.90;;;;;;4991022;28;20084;-81
2023/07/13 01:17:52;;;;;;;7.03;3.70;;;18.10;99.90;;;;;;4995459;28;20026;-81
2023/07/13 01:20:17;;;;;;;6.15;3.35;;;18.10;99.90;;;;;;4993691;28;20042;-81
2023/07/13 01:22:43;;;;;;;12.00;4.82;;;18.10;99.90;;;;;;4992757;28;20496;-81
2023/07/13 01:25:09;;;;;;;7.75;3.35;;;18.10;99.90;;;;;;4993757;28;20049;-81
2023/07/13 01:27:35;;;;;;;9.13;3.70;;;18.10;99.90;;;;;;4993123;28;20800;-81
2023/07/13 01:30:03;;;;;;;9.05;3.70;;;18.10;99.90;;;;;;4992649;28;20100;-81
2023/07/13 01:32:31;;;;;;;16.58;3.75;;;18.10;99.90;;;;;;4990935;28;20030;-81
2023/07/13 01:34:56;;;;;;;7.28;3.50;;;18.00;99.90;;;;;;4993155;28;20034;-81
2023/07/13 01:37:24;;;;;;;5.32;4.32;;;18.00;99.90;;;;;;4992081;28;20034;-81
2023/07/13 01:39:50;;;;;;;9.73;4.22;;;18.00;99.90;;;;;;4992846;28;20030;-81
2023/07/13 01:42:15;;;;;;;7.13;3.88;;;18.00;99.90;;;;;;4994221;28;20097;-81
2023/07/13 01:44:41;;;;;;;8.57;4.25;;;18.00;99.90;;;;;;4993965;28;20066;-81
2023/07/13 01:47:07;;;;;;;4.50;3.53;;;18.00;99.90;;;;;;4992713;28;20030;-82
2023/07/13 01:49:32;;;;;;;8.10;3.90;;;18.10;99.90;;;;;;4992894;28;20054;-82
2023/07/13 01:51:58;;;;;;;9.40;4.78;;;18.10;99.90;;;;;;4993136;28;20053;-81
2023/07/13 01:54:23;;;;;;;7.57;3.88;;;18.10;99.90;;;;;;4992920;28;20056;-82
2023/07/13 01:56:49;;;;;;;8.57;4.18;;;18.10;99.90;;;;;;4993524;28;20090;-81
2023/07/13 01:59:14;;;;;;;6.47;4.22;;;18.10;99.90;;;;;;4992847;28;20038;-82
2023/07/13 02:01:40;;;;;;;6.07;3.80;;;18.10;99.90;;;;;;4992618;28;20054;-82
2023/07/13 02:04:05;;;;;;;4.80;3.72;;;18.10;99.90;;;;;;4992443;28;20037;-82
2023/07/13 02:06:31;;;;;;;8.38;4.30;;;18.10;99.90;;;;;;4992128;28;20050;-82
2023/07/13 02:08:58;;;;;;;8.15;4.15;;;18.10;99.90;;;;;;4993299;28;20026;-81
2023/07/13 02:11:24;;;;;;;6.30;3.97;;;18.10;99.90;;;;;;4994163;28;20045;-82
2023/07/13 02:13:50;;;;;;;9.05;4.05;;;18.10;99.90;;;;;;4994133;28;20044;-82
2023/07/13 02:16:16;;;;;;;7.40;4.40;;;18.10;99.90;;;;;;4992287;28;20053;-82
2023/07/13 02:18:41;;;;;;;9.90;4.13;;;18.10;99.90;;;;;;4994246;28;20097;-82
2023/07/13 02:21:07;;;;;;;5.95;4.00;;;18.10;99.90;;;;;;4994964;28;20112;-82
2023/07/13 02:23:33;;;;;;;9.98;4.20;;;18.10;99.90;;;;;;4993894;28;20022;-83
2023/07/13 02:26:00;;;;;;;7.78;4.13;;;18.10;99.90;;;;;;4994080;28;20058;-83
2023/07/13 02:28:26;;;;;;;9.98;4.50;;;18.10;99.90;;;;;;4992658;28;20026;-82
2023/07/13 02:30:51;;;;;;;8.05;4.63;;;18.10;99.90;;;;;;4993466;28;20030;-83
2023/07/13 02:33:17;;;;;;;8.85;4.30;;;18.10;99.90;;;;;;4995715;28;20038;-82
2023/07/13 02:35:42;;;;;;;8.93;4.72;;;18.10;99.90;;;;;;4993647;28;20030;-82
2023/07/13 02:38:08;;;;;;;9.00;4.47;;;18.10;99.90;;;;;;4994254;28;20164;-82
2023/07/13 02:40:35;;;;;;;6.93;4.43;;;18.10;99.90;;;;;;4992987;28;20118;-82
2023/07/13 02:43:01;;;;;;;7.18;4.70;;;18.10;99.90;;;;;;4993154;28;20511;-82
2023/07/13 02:45:26;;;;;;;7.85;4.75;;;18.00;99.90;;;;;;4995274;28;21134;-82
2023/07/13 02:47:52;;;;;;;8.00;5.32;;;18.00;99.90;;;;;;4993708;28;20038;-82
2023/07/13 02:50:18;;;;;;;6.28;4.85;;;18.00;99.90;;;;;;4991796;28;20045;-81
2023/07/13 02:52:43;;;;;;;9.10;5.05;;;17.90;99.90;;;;;;4991699;28;20061;-82
2023/07/13 02:55:09;;;;;;;9.18;4.70;;;17.80;99.90;;;;;;4993236;28;20022;-82
2023/07/13 02:57:35;;;;;;;7.88;4.70;;;17.80;99.90;;;;;;4993385;28;20817;-82
2023/07/13 03:00:05;;;;;;;8.20;4.60;;;17.80;99.90;;;;;;4993743;28;20037;-82
2023/07/13 03:02:31;;;;;;;9.48;4.70;;;17.70;99.90;;;;;;4991437;28;20390;-82
2023/07/13 03:04:57;;;;;;;8.32;4.88;;;17.70;99.90;;;;;;4992578;28;20038;-82
2023/07/13 03:07:23;;;;;;;9.52;4.70;;;17.70;99.90;;;;;;4992659;28;20038;-81
2023/07/13 03:09:48;;;;;;;7.95;4.10;;;17.70;99.90;;;;;;4992540;28;20030;-82
2023/07/13 03:12:14;;;;;;;9.30;4.82;;;17.70;99.90;;;;;;4992753;28;20030;-82
2023/07/13 03:14:39;;;;;;;6.90;4.30;;;17.60;99.90;;;;;;4993009;28;20018;-82
2023/07/13 03:17:05;;;;;;;9.80;4.43;;;17.60;99.90;;;;;;4991190;28;20840;-83
2023/07/13 03:19:30;;;;;;;7.65;4.10;;;17.60;99.90;;;;;;4993220;28;20068;-82
2023/07/13 03:21:56;;;;;;;7.10;3.83;;;17.50;99.90;;;;;;4993365;28;20049;-82
2023/07/13 03:24:23;;;;;;;7.50;3.60;;;17.50;99.90;;;;;;5009643;28;20041;-82
2023/07/13 03:26:49;;;;;;;5.45;3.58;;;17.50;99.90;;;;;;4990862;28;20146;-82
2023/07/13 03:29:14;;;;;;;7.88;4.25;;;17.50;99.90;;;;;;4992279;28;20568;-81
2023/07/13 03:31:40;;;;;;;7.95;3.92;;;17.40;99.90;;;;;;4993129;28;20792;-82
2023/07/13 03:34:05;;;;;;;6.35;3.28;;;17.50;99.90;;;;;;4992835;28;20178;-82
2023/07/13 03:36:32;;;;;;;5.88;3.78;;;17.40;99.90;;;;;;4992456;28;20377;-81
2023/07/13 03:39:00;;;;;;;6.90;3.83;;;17.30;99.90;;;;;;4992095;28;20058;-82
2023/07/13 03:41:26;;;;;;;8.77;4.70;;;17.30;99.90;;;;;;4991539;28;20030;-82
2023/07/13 03:43:52;;;;;;;7.88;4.80;;;17.20;99.90;;;;;;4990756;28;20742;-81
2023/07/13 03:46:18;;;;;;;6.28;4.18;;;17.20;99.90;;;;;;4990365;28;21487;-82
2023/07/13 03:48:45;;;;;;;7.40;4.15;;;17.10;99.90;;;;;;4991116;28;20082;-82
2023/07/13 03:51:14;;;;;;;6.20;3.53;;;17.10;99.90;;;;;;4989536;28;20096;-82
2023/07/13 03:53:41;;;;;;;6.70;3.72;;;17.10;99.90;;;;;;4990860;28;20130;-82
2023/07/13 03:56:08;;;;;;;9.50;4.05;;;17.00;99.90;;;;;;4988099;28;20262;-82
2023/07/13 03:58:44;;;;;;;11.57;4.57;;;17.00;99.90;;;;;;4990143;28;20038;-81
2023/07/13 04:01:12;;;;;;;8.82;4.82;;;17.00;99.90;;;;;;4991393;28;20056;-82
2023/07/13 04:03:38;;;;;;;7.78;4.55;;;17.00;99.90;;;;;;4991162;28;20026;-82
2023/07/13 04:06:05;;;;;;;6.43;4.30;;;17.00;99.90;;;;;;4990299;28;20038;-82
2023/07/13 04:08:33;;;;;;;7.40;4.72;;;17.00;99.90;;;;;;4989864;28;20049;-73
2023/07/13 04:10:59;;;;;;;8.32;4.50;;;16.90;99.90;;;;;;4985231;28;20042;-74
2023/07/13 04:13:25;;;;;;;7.55;3.58;;;17.00;99.90;;;;;;4985142;28;20033;-74
2023/07/13 04:15:52;;;;;;;5.55;4.03;;;17.00;99.90;;;;;;4985488;28;20116;-74
2023/07/13 04:18:18;;;;;;;6.82;3.63;;;17.00;99.90;;;;;;4984257;28;20033;-75
2023/07/13 04:20:43;;;;;;;6.78;4.22;;;17.00;99.90;;;;;;4984434;28;20026;-74
2023/07/13 04:23:09;;;;;;;7.20;3.80;;;17.00;99.90;;;;;;4982162;28;20034;-75
2023/07/13 04:25:34;;;;;;;7.97;4.13;;;17.00;99.90;;;;;;4983707;28;20057;-75
2023/07/13 04:28:00;;;;;;;6.30;3.67;;;17.00;99.90;;;;;;4985821;28;20214;-75
2023/07/13 04:30:26;;;;;;;8.88;4.25;;;17.00;99.90;;;;;;4983862;28;20038;-75
2023/07/13 04:32:52;;;;;;;4.70;3.65;;;17.00;99.90;;;;;;4985507;28;20034;-76
2023/07/13 04:35:20;;;;;;;7.13;3.92;;;17.10;99.90;;;;;;4983316;28;20038;-75
2023/07/13 04:37:48;;;;;;;6.60;4.07;;;17.10;99.90;;;;;;4983737;28;20030;-75
2023/07/13 04:40:14;;;;;;;6.70;3.95;;;17.10;99.90;;;;;;4985683;28;20077;-75
2023/07/13 04:42:39;;;;;;;6.90;3.80;;;17.10;99.90;;;;;;4982374;28;20114;-75
2023/07/13 04:45:06;;;;;;;9.27;3.42;;;17.20;99.90;;;;;;4983955;28;20031;-75
2023/07/13 04:47:32;;;;;;;7.10;3.33;;;17.10;99.90;;;;;;4983864;28;20381;-80
2023/07/13 04:49:58;;;;;;;6.30;3.60;;;17.20;99.90;;;;;;4982385;28;20030;-75
2023/07/13 04:52:24;;;;;;;6.60;3.40;;;17.10;99.90;;;;;;4981557;28;20121;-75
2023/07/13 04:54:49;;;;;;;5.43;3.28;;;17.20;99.90;;;;;;4984579;28;20424;-75
2023/07/13 04:57:15;;;;;;;5.63;3.03;;;17.20;99.90;;;;;;4977952;28;20989;-75
2023/07/13 04:59:41;;;;;;;6.70;3.30;;;17.20;99.90;;;;;;4980870;28;20414;-76
2023/07/13 05:02:07;;;;;;;5.95;3.38;;;17.30;99.90;;;;;;4981953;28;21085;-75
2023/07/13 05:04:32;;;;;;;4.22;3.13;;;17.30;99.90;;;;;;4975240;28;20617;-75
2023/07/13 05:06:59;;;;;;;5.93;3.10;;;17.30;99.90;;;;;;4979115;28;20069;-75
2023/07/13 05:09:25;;;;;;;6.43;3.00;;;17.40;99.90;;;;;;4978775;28;20829;-75
2023/07/13 05:11:50;;;;;;;5.53;3.10;;;17.40;99.90;;;;;;4979212;28;20034;-75
2023/07/13 05:14:16;;;;;;;6.35;3.38;;;17.40;99.90;;;;;;4983286;28;20030;-75
2023/07/13 05:16:42;;;;;;;5.40;3.70;;;17.40;99.90;;;;;;4976758;28;20038;-75
2023/07/13 05:19:08;;;;;;;5.00;2.95;;;17.40;99.90;;;;;;4978040;28;20100;-75
2023/07/13 05:21:34;;;;;;;5.10;3.20;;;17.40;99.90;;;;;;4978437;28;20503;-75
2023/07/13 05:24:00;;;;;;;8.23;3.15;;;17.40;99.90;;;;;;4976377;28;20066;-75
2023/07/13 05:26:25;;;;;;;5.85;3.03;;;17.40;99.90;;;;;;4975939;28;20026;-75
2023/07/13 05:28:51;;;;;;;6.20;3.25;;;17.40;99.90;;;;;;4980082;28;20381;-79
2023/07/13 05:31:16;;;;;;;4.57;3.00;;;17.40;99.90;;;;;;4981630;28;20034;-79
2023/07/13 05:33:42;;;;;;;5.93;3.00;;;17.40;99.90;;;;;;4979474;28;20026;-79
2023/07/13 05:36:08;;;;;;;4.68;3.25;;;17.50;99.90;;;;;;4979835;28;20165;-79
2023/07/13 05:38:33;;;;;;;5.13;3.20;;;17.50;99.90;;;;;;4980520;28;20029;-74
2023/07/13 05:40:59;;;;;;;6.63;3.33;;;17.50;99.90;;;;;;4980788;28;20037;-77
2023/07/13 05:43:25;;;;;;;5.38;2.80;;;17.60;99.90;;;;;;4977402;28;20034;-77
2023/07/13 05:45:53;;;;;;;6.65;3.25;;;17.60;99.90;;;;;;4974850;28;20081;-78
2023/07/13 05:48:19;;;;;;;5.43;2.80;;;17.70;99.90;;;;;;4977261;28;20049;-77
2023/07/13 05:50:44;;;;;;;7.93;3.70;;;17.90;99.90;;;;;;4976076;28;20038;-77
2023/07/13 05:53:11;;;;;;;7.40;3.35;;;17.90;99.90;;;;;;4981744;28;20109;-81
2023/07/13 05:55:47;;;;;;;3.72;2.83;;;18.00;99.90;;;;;;4980578;28;20197;-76
2023/07/13 05:58:13;;;;;;;4.05;2.80;;;18.10;99.90;;;;;;4984124;28;20029;-76
2023/07/13 06:00:38;;;;;;;8.98;3.15;;;18.10;99.90;;;;;;4986626;28;20513;-76
2023/07/13 06:03:04;;;;;;;5.30;2.90;;;18.20;99.90;;;;;;4983887;28;20500;-74
2023/07/13 06:05:29;;;;;;;5.00;3.25;;;18.30;99.90;;;;;;4983348;28;20030;-74
2023/07/13 06:07:55;;;;;;;4.03;3.00;;;18.40;99.90;;;;;;4982032;28;20339;-75
2023/07/13 06:10:21;;;;;;;6.13;3.00;;;18.50;99.90;;;;;;4984832;28;20493;-74
2023/07/13 06:12:46;;;;;;;4.72;2.50;;;18.70;99.90;;;;;;4982732;28;20056;-75
2023/07/13 06:15:12;;;;;;;6.82;3.15;;;18.90;99.90;;;;;;4982332;28;20048;-74
2023/07/13 06:17:38;;;;;;;7.38;2.80;;;19.00;99.90;;;;;;4981897;28;20031;-75
2023/07/13 06:20:03;;;;;;;4.72;2.80;;;19.30;99.90;;;;;;4984205;28;20040;-74
2023/07/13 06:22:29;;;;;;;10.88;2.60;;;19.50;99.90;;;;;;4983660;28;20033;-78
2023/07/13 06:24:55;;;;;;;4.47;2.20;;;19.60;99.90;;;;;;4978542;28;20461;-76
2023/07/13 06:27:20;;;;;;;7.75;2.90;;;19.70;99.90;;;;;;4980747;28;20034;-85
2023/07/13 06:29:46;;;;;;;6.18;2.47;;;19.70;99.90;;;;;;4984151;28;20504;-77
2023/07/13 06:32:11;;;;;;;10.57;2.80;;;19.70;99.90;;;;;;4978803;28;20497;-77
2023/07/13 06:34:37;;;;;;;7.60;2.78;;;19.60;99.90;;;;;;4982901;28;20751;-76
2023/07/13 06:37:02;;;;;;;6.75;2.90;;;19.60;99.90;;;;;;4980775;28;20142;-77
2023/07/13 06:39:28;;;;;;;8.15;3.00;;;19.50;99.90;;;;;;4984060;28;20030;-76
2023/07/13 06:41:53;;;;;;;4.38;2.70;;;19.50;99.90;;;;;;4984275;28;20040;-77
2023/07/13 06:44:19;;;;;;;4.25;2.50;;;19.30;99.90;;;;;;4985180;28;20022;-78
2023/07/13 06:46:44;;;;;;;6.63;2.58;;;19.30;99.90;;;;;;4982282;28;20037;-82
2023/07/13 06:49:10;;;;;;;4.53;2.33;;;19.20;99.90;;;;;;4985150;28;21095;-78
2023/07/13 06:51:36;;;;;;;5.15;2.60;;;19.20;99.90;;;;;;4986535;28;20054;-80
2023/07/13 06:54:02;;;;;;;6.93;2.83;;;19.20;99.90;;;;;;4987701;28;20522;-79
2023/07/13 06:56:27;;;;;;;6.85;2.70;;;19.20;99.90;;;;;;4986824;28;20665;-80
2023/07/13 06:58:53;;;;;;;5.97;3.28;;;19.20;99.90;;;;;;4986822;28;20042;-80
2023/07/13 07:01:18;;;;;;;5.20;2.38;;;19.30;99.90;;;;;;4988644;28;20030;-80
2023/07/13 07:03:44;;;;;;;3.67;2.30;;;19.40;99.90;;;;;;4987675;28;20026;-80
2023/07/13 07:06:19;;;;;;;4.65;2.95;;;19.40;99.90;;;;;;4985374;28;20384;-80
2023/07/13 07:08:45;;;;;;;9.15;2.63;;;19.40;99.90;;;;;;4985797;28;20720;-80
2023/07/13 07:11:13;;;;;;;9.93;3.28;;;19.40;99.90;;;;;;4981854;28;20033;-80
2023/07/13 07:13:39;;;;;;;6.93;2.75;;;19.40;99.90;;;;;;4986453;28;20022;-80
2023/07/13 07:16:04;;;;;;;5.78;2.95;;;19.30;99.90;;;;;;4987080;28;20460;-80
2023/07/13 07:18:30;;;;;;;5.63;2.50;;;19.20;99.90;;;;;;4986455;28;20074;-80
2023/07/13 07:20:55;;;;;;;8.38;2.63;;;19.20;99.90;;;;;;4989170;28;20026;-80
2023/07/13 07:23:22;;;;;;;6.30;2.60;;;19.20;99.90;;;;;;4988333;28;20027;-80
2023/07/13 07:25:47;;;;;;;7.88;3.53;;;19.10;99.90;;;;;;4988525;28;20098;-79
2023/07/13 07:28:17;;;;;;;5.10;2.38;;;19.10;99.90;;;;;;4977294;28;20091;-80
2023/07/13 07:30:44;;;;;;;7.72;2.60;;;19.10;99.90;;;;;;4975391;28;20165;-80
2023/07/13 07:33:09;;;;;;;7.47;2.60;;;19.10;99.90;;;;;;4977491;28;20050;-79
2023/07/13 07:35:35;;;;;;;7.45;2.78;;;19.00;99.90;;;;;;4980233;28;20213;-80
2023/07/13 07:38:00;;;;;;;5.80;2.85;;;19.10;99.90;;;;;;4978765;28;20057;-80
2023/07/13 07:40:26;;;;;;;9.10;3.10;;;19.10;99.90;;;;;;4976909;28;20061;-79
2023/07/13 07:42:52;;;;;;;6.28;2.97;;;19.10;99.90;;;;;;4977916;28;20042;-79
2023/07/13 07:45:17;;;;;;;7.45;3.20;;;19.10;99.90;;;;;;4978901;28;20039;-79
2023/07/13 07:47:43;;;;;;;6.25;2.60;;;19.10;99.90;;;;;;4976171;28;20191;-79
2023/07/13 07:50:09;;;;;;;6.68;2.45;;;19.00;99.90;;;;;;4976958;28;20038;-79
2023/07/13 07:52:35;;;;;;;5.32;2.10;;;19.00;99.90;;;;;;4979042;28;20539;-79
2023/07/13 07:55:00;;;;;;;5.38;2.25;;;19.00;99.90;;;;;;4979361;28;20030;-79
2023/07/13 07:57:26;;;;;;;7.28;2.60;;;18.90;99.90;;;;;;4977039;28;20572;-80
2023/07/13 07:59:51;;;;;;;5.22;2.22;;;18.90;99.90;;;;;;4979500;28;20039;-80
2023/07/13 08:02:17;;;;;;;5.50;2.40;;;18.80;99.90;;;;;;4979109;28;20735;-79
2023/07/13 08:04:43;;;;;;;7.90;2.55;;;18.80;99.90;;;;;;4976775;28;20575;-79
2023/07/13 08:07:09;;;;;;;4.72;2.03;;;18.70;99.90;;;;;;4978557;28;20034;-79
2023/07/13 08:09:34;;;;;;;5.43;2.20;;;18.70;99.90;;;;;;4978272;28;20046;-80
2023/07/13 08:12:00;;;;;;;7.85;2.10;;;18.60;99.90;;;;;;4977864;28;20480;-80
2023/07/13 08:14:25;;;;;;;6.00;1.85;;;18.50;99.90;;;;;;4978522;28;20971;-80
2023/07/13 08:16:51;;;;;;;4.65;2.13;;;18.40;99.90;;;;;;4979234;28;20878;-80
2023/07/13 08:19:17;;;;;;;5.97;1.83;;;18.30;99.90;;;;;;4978046;28;20030;-80
2023/07/13 08:21:43;;;;;;;5.38;1.70;;;18.40;99.90;;;;;;4973538;28;20093;-80
2023/07/13 08:24:11;;;;;;;3.88;1.90;;;18.30;99.90;;;;;;4977896;28;20027;-81
2023/07/13 08:26:37;;;;;;;7.10;2.38;;;18.30;99.90;;;;;;4977347;28;20038;-79
2023/07/13 08:29:03;;;;;;;4.95;1.80;;;18.40;99.90;;;;;;4977268;28;20125;-79
2023/07/13 08:31:28;;;;;;;8.27;2.03;;;18.50;99.90;;;;;;4974838;28;20103;-80
2023/07/13 08:33:54;;;;;;;4.70;1.73;;;18.70;99.90;;;;;;4976947;28;20034;-80
2023/07/13 08:36:19;;;;;;;3.47;1.63;;;18.90;99.90;;;;;;4977904;28;20037;-80
2023/07/13 08:38:45;;;;;;;9.35;1.70;;;19.00;99.90;;;;;;4980192;28;20507;-80
2023/07/13 08:41:16;;;;;;;5.13;1.73;;;19.10;99.90;;;;;;4980168;28;20152;-80
2023/07/13 08:43:46;;;;;;;4.97;2.00;;;19.30;99.90;;;;;;4984951;28;20030;-80
2023/07/13 08:46:31;;;;;;;9.20;1.85;;;19.30;99.90;;;;;;4982721;28;20106;-80
2023/07/13 08:49:01;;;;;;;5.05;1.60;;;19.30;99.90;;;;;;4983682;28;20397;-80
2023/07/13 08:51:53;;;;;;;3.13;1.58;;;19.30;99.90;;;;;;4981983;28;20041;-80
2023/07/13 08:54:38;;;;;;;5.28;1.80;;;19.20;99.90;;;;;;4980771;28;20069;-79
2023/07/13 08:57:16;;;;;;;5.50;2.08;;;19.20;99.90;;;;;;4981564;28;20046;-79
2023/07/13 08:59:43;;;;;;;5.65;1.75;;;19.10;99.90;;;;;;4981302;28;20046;-79
2023/07/13 09:02:33;;;;;;;6.70;2.55;;;19.00;99.90;;;;;;4981861;28;20045;-80
2023/07/13 09:05:04;;;;;;;4.50;1.70;;;19.10;99.90;;;;;;4984695;28;20158;-80
2023/07/13 09:07:53;;;;;;;4.90;1.83;;;19.20;99.90;;;;;;4982453;28;20034;-79
2023/07/13 09:10:44;;;;;;;6.38;2.05;;;19.20;99.90;;;;;;4980801;28;20038;-80
2023/07/13 09:13:45;;;;;;;6.30;1.88;;;19.20;99.90;;;;;;4980547;28;20034;-80
2023/07/13 09:16:12;;;;;;;6.55;2.17;;;19.30;99.90;;;;;;4981209;28;20034;-80
2023/07/13 09:18:42;;;;;;;3.65;1.90;;;19.40;99.90;;;;;;4980750;28;20041;-79
2023/07/13 09:21:23;;;;;;;5.88;1.80;;;19.50;99.90;;;;;;4979947;28;20030;-80
2023/07/13 09:23:53;;;;;;;4.13;1.83;;;19.60;99.90;;;;;;4983878;28;20030;-79
2023/07/13 09:26:22;;;;;;;4.45;1.80;;;19.80;99.90;;;;;;4978171;28;21438;-80
2023/07/13 09:28:56;;;;;;;4.72;2.05;;;19.80;99.90;;;;;;4980962;28;20180;-79
2023/07/13 09:31:36;;;;;;;5.50;1.80;;;19.80;99.90;;;;;;4981314;28;20045;-80
2023/07/13 09:34:02;;;;;;;3.53;1.65;;;19.80;99.90;;;;;;4983007;28;20531;-79
2023/07/13 09:36:30;;;;;;;7.75;1.83;;;19.90;99.90;;;;;;4990183;28;20034;-80
2023/07/13 09:39:25;;;;;;;5.30;1.85;;;19.90;99.90;;;;;;4989357;28;20035;-79
2023/07/13 09:42:12;;;;;;;4.88;1.80;;;19.90;99.90;;;;;;4985904;28;20469;-80
2023/07/13 09:44:53;;;;;;;4.38;2.03;;;20.00;99.90;;;;;;4991030;28;20386;-79
2023/07/13 09:47:32;;;;;;;7.43;2.10;;;20.10;99.90;;;;;;4989654;28;20037;-79
2023/07/13 09:50:03;;;;;;;5.05;1.90;;;20.30;99.90;;;;;;4988050;28;20034;-79
2023/07/13 09:52:47;;;;;;;8.77;2.00;;;20.40;99.90;;;;;;4989364;28;20039;-79
2023/07/13 09:55:23;;;;;;;4.33;1.77;;;20.50;99.90;;;;;;5001186;28;20030;-80
2023/07/13 09:57:50;;;;;;;5.85;1.90;;;20.60;99.90;;;;;;4987108;28;20170;-79
2023/07/13 10:00:25;;;;;;;5.15;1.95;;;20.70;99.90;;;;;;4988974;28;21386;-80
2023/07/13 10:03:00;;;;;;;5.80;1.85;;;20.80;99.90;;;;;;4987505;28;20327;-79
2023/07/13 10:05:26;;;;;;;7.18;1.77;;;21.00;99.90;;;;;;4988103;28;20619;-80
2023/07/13 10:07:52;;;;;;;5.55;1.80;;;21.20;99.90;;;;;;4986830;28;20030;-79
2023/07/13 10:10:20;;;;;;;6.93;2.10;;;21.60;99.90;;;;;;4986880;28;20391;-80
2023/07/13 10:12:47;;;;;;;4.00;1.85;;;22.00;99.90;;;;;;4983710;28;20036;-80
2023/07/13 10:15:24;;;;;;;4.47;1.60;;;22.30;99.90;;;;;;4986442;28;20121;-79
2023/07/13 10:17:51;;;;;;;4.90;1.70;;;22.50;99.90;;;;;;4989379;28;20037;-79
2023/07/13 10:20:18;;;;;;;3.95;1.52;;;22.70;99.90;;;;;;4986372;28;20122;-79
2023/07/13 10:22:57;;;;;;;5.80;1.42;;;22.60;99.90;;;;;;4987479;28;20164;-79
2023/07/13 10:25:26;;;;;;;6.10;1.80;;;22.60;99.90;;;;;;4986456;28;20057;-79
2023/07/13 10:28:02;;;;;;;5.63;1.50;;;22.60;99.90;;;;;;4985058;28;20040;-78
2023/07/13 10:30:32;;;;;;;4.63;1.70;;;22.60;99.90;;;;;;4981132;28;20081;-79
2023/07/13 10:33:01;;;;;;;7.05;2.03;;;22.60;99.90;;;;;;4984550;28;20141;-79
2023/07/13 10:35:30;;;;;;;6.22;1.52;;;22.50;99.90;;;;;;4985546;28;20038;-78
2023/07/13 10:38:06;;;;;;;4.50;1.80;;;22.40;99.90;;;;;;4984143;28;20038;-79
2023/07/13 10:41:03;;;;;;;10.38;1.60;;;22.40;99.90;;;;;;4986562;28;20152;-78
2023/07/13 10:43:43;;;;;;;7.22;1.92;;;22.40;99.90;;;;;;4985223;28;20613;-78
2023/07/13 10:46:12;;;;;;;5.85;1.27;;;22.40;99.90;;;;;;4984339;28;20042;-78
2023/07/13 10:48:40;;;;;;;5.15;2.10;;;22.60;99.90;;;;;;4984606;28;20125;-78
2023/07/13 10:51:07;;;;;;;4.97;1.55;;;22.80;99.90;;;;;;4984904;28;20038;-78
2023/07/13 10:53:37;;;;;;;6.70;2.03;;;23.00;99.90;;;;;;4984164;28;20042;-79
2023/07/13 10:56:08;;;;;;;3.63;1.75;;;23.40;99.90;;;;;;4983568;28;20562;-79
2023/07/13 10:58:36;;;;;;;5.55;1.70;;;23.60;99.90;;;;;;4985946;28;20117;-80
2023/07/13 11:01:16;;;;;;;5.10;1.60;;;23.90;99.90;;;;;;4984223;28;20026;-79
2023/07/13 11:03:59;;;;;;;3.60;1.50;;;24.10;99.90;;;;;;4984079;28;20042;-78
2023/07/13 11:06:25;;;;;;;5.85;1.70;;;24.40;99.90;;;;;;4985851;28;20092;-78
2023/07/13 11:08:52;;;;;;;3.67;1.63;;;24.50;99.90;;;;;;4985090;28;21384;-79
2023/07/13 11:11:24;;;;;;;6.65;1.80;;;24.70;99.90;;;;;;4983901;28;20034;-79
2023/07/13 11:13:49;;;;;;;4.10;1.77;;;24.90;99.90;;;;;;4985809;28;20455;-80
2023/07/13 11:16:17;;;;;;;4.30;1.50;;;25.10;99.90;;;;;;4984733;28;20072;-79
2023/07/13 11:19:08;;;;;;;8.35;2.13;;;25.10;99.90;;;;;;4984519;28;20104;-80
2023/07/13 11:21:34;;;;;;;8.25;1.90;;;25.40;99.90;;;;;;4988305;28;20031;-83
2023/07/13 11:24:17;;;;;;;3.92;1.88;;;25.50;99.90;;;;;;4988559;28;20038;-83
2023/07/13 11:26:45;;;;;;;6.35;1.88;;;25.40;99.90;;;;;;4988420;28;20105;-84
2023/07/13 11:29:17;;;;;;;3.65;1.58;;;25.40;99.90;;;;;;4988726;28;21029;-84
2023/07/13 11:31:53;;;;;;;2.80;1.40;;;25.50;99.90;;;;;;4989423;28;20034;-82
2023/07/13 11:34:30;;;;;;;4.15;1.60;;;25.50;99.90;;;;;;4988715;28;20493;-83
2023/07/13 11:36:58;;;;;;;5.32;1.65;;;25.50;99.90;;;;;;4986699;28;21042;-84
2023/07/13 11:39:38;;;;;;;15.40;1.75;;;25.70;99.90;;;;;;4989053;28;20110;-83
2023/07/13 11:42:08;;;;;;;3.67;1.58;;;26.00;99.90;;;;;;4985682;28;20088;-83
2023/07/13 11:44:34;;;;;;;7.88;1.88;;;26.20;99.90;;;;;;4986752;28;20068;-83
2023/07/13 11:47:10;;;;;;;3.47;1.42;;;26.40;99.90;;;;;;4988433;28;20122;-83
2023/07/13 11:49:47;;;;;;;4.05;1.67;;;26.40;99.90;;;;;;4988920;28;20026;-83
2023/07/13 11:52:19;;;;;;;4.22;1.60;;;26.60;99.90;;;;;;4986632;28;20026;-78
2023/07/13 11:54:58;;;;;;;3.75;1.42;;;26.60;99.90;;;;;;4982238;28;20026;-78
2023/07/13 11:57:33;;;;;;;7.35;1.75;;;26.50;99.90;;;;;;4983837;28;20037;-79
2023/07/13 12:00:10;;;;;;;3.65;1.50;;;26.30;99.90;;;;;;4983166;28;20030;-79
2023/07/13 12:02:42;;;;;;;3.58;1.50;;;26.00;99.90;;;;;;4984870;28;20046;-79
2023/07/13 12:05:12;;;;;;;4.80;1.70;;;25.70;99.90;;;;;;4980750;28;20038;-80
2023/07/13 12:07:38;;;;;;;4.90;1.60;;;25.50;99.90;;;;;;4979715;28;20136;-79
2023/07/13 12:10:24;;;;;;;4.13;1.77;;;25.40;99.90;;;;;;4981530;28;20035;-79
2023/07/13 12:13:00;;;;;;;8.63;1.70;;;25.30;99.90;;;;;;4982716;28;20019;-77
2023/07/13 12:15:37;;;;;;;3.67;1.50;;;25.10;99.90;;;;;;4985638;28;20049;-78
2023/07/13 12:18:02;;;;;;;5.13;2.20;;;24.90;99.90;;;;;;4983293;28;21357;-78
2023/07/13 12:20:37;;;;;;;3.95;1.73;;;24.80;99.90;;;;;;4986797;28;20037;-78
2023/07/13 12:23:06;;;;;;;4.78;1.40;;;24.80;99.90;;;;;;4982909;28;20042;-79
2023/07/13 12:25:31;;;;;;;5.63;1.65;;;24.90;99.90;;;;;;4979801;28;20038;-78
2023/07/13 12:27:57;;;;;;;4.82;1.42;;;24.80;99.90;;;;;;4985250;28;20037;-78
2023/07/13 12:30:33;;;;;;;5.45;1.45;;;24.60;99.90;;;;;;4984845;28;20071;-78
2023/07/13 12:33:11;;;;;;;6.50;1.50;;;24.40;99.90;;;;;;4984280;28;20104;-79
2023/07/13 12:35:49;;;;;;;7.38;2.15;;;24.40;99.90;;;;;;4985286;28;20088;-78
2023/07/13 12:38:16;;;;;;;10.52;1.90;;;24.50;99.90;;;;;;4985197;28;20045;-78
2023/07/13 12:40:42;;;;;;;7.70;1.70;;;24.60;99.90;;;;;;4981248;28;20042;-78
2023/07/13 12:43:13;;;;;;;3.78;1.50;;;24.70;99.90;;;;;;4984067;28;20119;-78
2023/07/13 12:45:39;;;;;;;16.63;2.22;;;24.80;99.90;;;;;;4985531;28;20041;-78
2023/07/13 12:48:15;;;;;;;5.43;1.50;;;24.90;99.90;;;;;;4984722;28;20550;-78
2023/07/13 12:50:46;;;;;;;7.15;1.48;;;25.00;99.90;;;;;;4984893;28;20400;-78
2023/07/13 12:53:20;;;;;;;5.93;1.48;;;25.00;99.90;;;;;;4983801;28;20026;-78